KAWG Airport (Washington Muni) Information

FAA: AWG - ICAO: KAWG

KAWG Airport Location

State Iowa
County Washington
City Washington
KAWG Airport is 2 miles southeast of Washington, IA.
Latitude 41-16-32.5000N
Longitude 091-40-33.9000W
Elevation 754ft

KAWG Airport METARs

METAR KAWG 161855Z AUTO 18009G14KT 10SM CLR 29/15 A2999 RMK AO2
Altimeter 29.99"
Temperature 29.0°C (84.2°F)
Wind 180° at 9KT with gusts to 14KT
Clouds Skies are clear.
Visibility 10.0mi
Time observed: 2021-09-16T18:55:00Z

KAWG Airport Details

Status Operational
Activation December 1941
Ownership Public
Usage Public
Chart CHICAGO
ATC on-site No
Beacon schedule sunset-sunrise
Beacon color clear green

KAWG Airport Contacts

Owner CITY OF WASHINGTON
Owner address 215 E WASHINGTON, WASHINGTON, IA 52353
Owner phone 319-461-0359
Manager DICKINSON COUNTY ARPT AUTH
Manager address BOX 702, OKOBOJI, IA 51355
Manager phone 712-332-9412

KAWG Airport (Washington Muni) Radio Frequencies

KAWG (Airport) Radio Frequencies

UNICOM 122.7
Common traffic advisory frequency (CTAF) 122.7